Time;durP1;ratioP1;P1;durP2;ratioP2;P2;SDS_P1;SDS_P2;PMS_P1;PMS_P2;Temp;Humidity;BMP_temperature;BMP_pressure;BME280_temperature;BME280_humidity;BME280_pressure;Samples;Min_cycle;Max_cycle;Signal;HPM_P1;HPM_P2
2021/08/26 00:46:07;;;;;;;15.40;5.23;;;15.90;98.30;;;;;;4976133;23;20530;-81
2021/08/26 00:48:10;;;;;;;20.50;7.07;;;15.90;98.30;;;;;;5094938;23;20814;-81
2021/08/26 00:50:14;;;;;;;28.67;8.10;;;15.90;98.30;;;;;;5123306;23;20450;-81
2021/08/26 00:52:19;;;;;;;17.37;6.10;;;16.00;98.30;;;;;;5117248;23;20426;-81
2021/08/26 00:54:22;;;;;;;25.00;6.93;;;15.90;98.30;;;;;;5125841;23;20432;-81
2021/08/26 00:56:25;;;;;;;16.50;5.87;;;16.00;98.30;;;;;;5126459;23;20501;-82
2021/08/26 00:58:30;;;;;;;25.93;7.20;;;16.00;98.30;;;;;;5125649;23;20425;-82
2021/08/26 01:00:34;;;;;;;21.20;6.50;;;16.00;98.30;;;;;;5117848;23;20434;-82
2021/08/26 01:02:45;;;;;;;15.30;5.73;;;16.00;98.30;;;;;;5117584;23;20481;-82
2021/08/26 01:04:51;;;;;;;28.40;6.67;;;16.00;98.30;;;;;;5124878;23;20429;-82
2021/08/26 01:07:01;;;;;;;20.50;6.03;;;16.00;98.30;;;;;;5118634;23;20879;-81
2021/08/26 01:09:08;;;;;;;25.40;6.30;;;15.90;98.30;;;;;;5125743;23;20430;-81
2021/08/26 01:11:13;;;;;;;29.83;7.57;;;16.00;98.30;;;;;;5126562;23;20424;-82
2021/08/26 01:13:18;;;;;;;29.40;7.30;;;16.00;98.30;;;;;;5117185;23;20417;-81
2021/08/26 01:15:21;;;;;;;18.20;6.23;;;16.10;98.30;;;;;;5126129;23;20513;-82
2021/08/26 01:17:24;;;;;;;21.80;8.00;;;16.00;98.30;;;;;;5126112;23;20434;-81
2021/08/26 01:19:29;;;;;;;19.80;5.93;;;16.00;98.30;;;;;;5125258;23;20441;-82
2021/08/26 01:21:32;;;;;;;24.70;6.73;;;16.00;98.30;;;;;;5126565;23;20436;-82
2021/08/26 01:23:37;;;;;;;29.80;7.30;;;15.90;98.30;;;;;;5117368;23;20533;-82
2021/08/26 01:25:45;;;;;;;20.90;6.30;;;16.00;98.30;;;;;;5118353;23;20803;-81
2021/08/26 01:27:51;;;;;;;20.43;6.27;;;15.90;98.30;;;;;;5117926;23;20472;-81
2021/08/26 01:29:54;;;;;;;20.67;7.70;;;15.90;98.30;;;;;;5118188;23;20450;-82
2021/08/26 01:31:58;;;;;;;19.83;6.57;;;15.90;98.30;;;;;;5126460;23;20513;-82
2021/08/26 01:34:02;;;;;;;26.57;6.60;;;15.90;98.30;;;;;;5116980;23;20437;-82
2021/08/26 01:36:06;;;;;;;28.43;7.37;;;15.90;98.30;;;;;;5126018;23;20512;-81
2021/08/26 01:38:09;;;;;;;14.03;6.37;;;15.90;98.30;;;;;;5126379;23;20449;-82
2021/08/26 01:40:13;;;;;;;21.57;8.67;;;15.80;98.30;;;;;;5126355;23;20532;-82
2021/08/26 01:42:17;;;;;;;24.03;7.33;;;15.90;98.30;;;;;;5131312;23;20426;-81
2021/08/26 01:44:22;;;;;;;26.53;5.80;;;15.90;98.30;;;;;;5124417;23;20441;-82
2021/08/26 01:46:25;;;;;;;15.63;8.40;;;15.80;98.30;;;;;;5117061;23;20436;-82
2021/08/26 01:48:28;;;;;;;23.27;5.80;;;15.70;98.30;;;;;;5117080;23;20426;-82
2021/08/26 01:50:31;;;;;;;21.10;6.30;;;15.70;98.30;;;;;;5116928;23;20504;-82
2021/08/26 01:52:34;;;;;;;24.10;5.83;;;15.70;98.30;;;;;;5124970;23;20484;-82
2021/08/26 01:54:37;;;;;;;22.27;5.93;;;15.70;98.30;;;;;;5116331;23;20504;-82
2021/08/26 01:56:40;;;;;;;19.77;6.90;;;15.70;98.30;;;;;;5116671;23;20430;-81
2021/08/26 01:58:45;;;;;;;22.97;6.70;;;15.70;98.30;;;;;;5117237;23;20544;-82
2021/08/26 02:00:48;;;;;;;18.03;6.07;;;15.70;98.30;;;;;;5116691;23;21029;-82
2021/08/26 02:02:51;;;;;;;22.93;6.80;;;15.70;98.30;;;;;;5116721;23;20438;-82
2021/08/26 02:04:54;;;;;;;23.03;7.10;;;15.70;98.30;;;;;;5115995;23;21168;-82
2021/08/26 02:06:57;;;;;;;22.73;6.43;;;15.70;98.30;;;;;;5116392;23;20436;-82
2021/08/26 02:09:00;;;;;;;20.37;5.90;;;15.60;98.30;;;;;;5124791;23;20438;-82
2021/08/26 02:11:03;;;;;;;24.47;7.17;;;15.60;98.30;;;;;;5124482;23;20517;-82
2021/08/26 02:13:06;;;;;;;26.10;6.73;;;15.60;98.30;;;;;;5124133;23;20767;-82
2021/08/26 02:15:11;;;;;;;24.90;6.83;;;15.60;98.30;;;;;;5125044;23;20424;-81
2021/08/26 02:17:14;;;;;;;18.13;6.20;;;15.60;98.30;;;;;;5117837;23;21196;-82
2021/08/26 02:19:18;;;;;;;18.43;6.93;;;15.60;98.30;;;;;;5125518;23;20448;-81
2021/08/26 02:21:21;;;;;;;35.03;7.33;;;15.60;98.30;;;;;;5125814;23;20449;-82
2021/08/26 02:23:24;;;;;;;22.63;6.97;;;15.50;98.30;;;;;;5125101;23;20508;-81
2021/08/26 02:25:27;;;;;;;26.43;6.70;;;15.60;98.30;;;;;;5117067;23;20430;-82
2021/08/26 02:27:30;;;;;;;19.83;6.40;;;15.70;98.30;;;;;;5116647;23;20425;-82
2021/08/26 02:29:36;;;;;;;23.73;7.03;;;15.70;98.30;;;;;;5116355;23;20525;-82
2021/08/26 02:31:40;;;;;;;20.53;6.17;;;15.70;98.30;;;;;;5116491;23;20419;-82
2021/08/26 02:33:43;;;;;;;17.70;6.47;;;15.70;98.30;;;;;;5123865;23;20430;-82
2021/08/26 02:35:46;;;;;;;19.97;5.83;;;15.60;98.30;;;;;;5116202;23;20436;-82
2021/08/26 02:37:49;;;;;;;26.87;7.57;;;15.60;98.30;;;;;;5116044;23;20438;-82
2021/08/26 02:39:53;;;;;;;22.87;8.00;;;15.60;98.30;;;;;;5115575;23;20444;-82
2021/08/26 02:41:56;;;;;;;19.27;6.40;;;15.60;98.30;;;;;;5116085;23;20501;-82
2021/08/26 02:43:59;;;;;;;17.90;6.20;;;15.60;98.30;;;;;;5115718;23;20532;-82
2021/08/26 02:46:02;;;;;;;20.20;5.73;;;15.60;98.30;;;;;;5124086;23;20429;-82
2021/08/26 02:48:07;;;;;;;20.47;6.23;;;15.50;98.30;;;;;;5124307;23;20433;-82
2021/08/26 02:50:10;;;;;;;22.60;6.27;;;15.50;98.30;;;;;;5124225;23;20765;-82
2021/08/26 02:52:13;;;;;;;18.37;6.27;;;15.50;98.30;;;;;;5124346;23;20424;-82
2021/08/26 02:54:16;;;;;;;19.23;6.93;;;15.50;98.30;;;;;;5115937;23;20434;-81
2021/08/26 02:56:19;;;;;;;28.33;6.60;;;15.60;98.30;;;;;;5116156;23;20513;-82
2021/08/26 02:58:22;;;;;;;15.73;6.53;;;15.60;98.30;;;;;;5124228;23;20446;-82
2021/08/26 03:00:25;;;;;;;22.20;7.63;;;15.60;98.30;;;;;;5115820;23;20457;-82
2021/08/26 03:02:28;;;;;;;21.03;9.80;;;15.50;98.30;;;;;;5124139;23;20432;-82
2021/08/26 03:04:33;;;;;;;24.23;6.60;;;15.50;98.30;;;;;;5123192;23;20445;-82
2021/08/26 03:06:35;;;;;;;16.63;6.10;;;15.50;98.30;;;;;;5124152;23;20501;-82
2021/08/26 03:08:38;;;;;;;22.50;7.30;;;15.50;98.30;;;;;;5124547;23;20520;-82
2021/08/26 03:10:42;;;;;;;22.53;6.53;;;15.50;98.30;;;;;;5115849;23;20431;-81
2021/08/26 03:12:45;;;;;;;26.20;10.23;;;15.50;98.30;;;;;;5116338;23;20429;-82
2021/08/26 03:14:48;;;;;;;19.93;7.70;;;15.50;98.30;;;;;;5123371;23;20429;-81
2021/08/26 03:16:51;;;;;;;28.77;6.40;;;15.60;98.30;;;;;;5116078;23;20536;-82
2021/08/26 03:18:55;;;;;;;18.93;6.20;;;15.60;98.30;;;;;;5124614;23;20449;-82
2021/08/26 03:21:00;;;;;;;25.00;7.40;;;15.60;98.30;;;;;;5124446;23;20496;-82
2021/08/26 03:23:03;;;;;;;19.40;6.87;;;15.60;98.30;;;;;;5116071;23;20430;-81
2021/08/26 03:25:08;;;;;;;20.30;6.00;;;15.60;98.30;;;;;;5123440;23;20452;-82
2021/08/26 03:27:11;;;;;;;19.83;6.70;;;15.70;98.30;;;;;;5117978;23;20473;-82
2021/08/26 03:29:14;;;;;;;18.73;7.63;;;15.70;98.30;;;;;;5126190;23;20438;-82
2021/08/26 03:31:17;;;;;;;25.80;7.37;;;15.70;98.30;;;;;;5125517;23;20815;-82
2021/08/26 03:33:21;;;;;;;18.30;6.40;;;15.70;98.30;;;;;;5125665;23;20741;-82
2021/08/26 03:35:24;;;;;;;18.87;8.20;;;15.60;98.30;;;;;;5125462;23;20500;-82
2021/08/26 03:37:28;;;;;;;13.20;6.83;;;15.60;98.30;;;;;;5125728;23;20464;-82
2021/08/26 03:39:31;;;;;;;20.73;7.13;;;15.60;98.30;;;;;;5125333;23;20461;-82
2021/08/26 03:41:34;;;;;;;24.33;6.33;;;15.50;98.30;;;;;;5125911;23;20436;-82
2021/08/26 03:43:37;;;;;;;14.10;5.43;;;15.50;98.30;;;;;;5125425;23;20505;-82
2021/08/26 03:45:40;;;;;;;13.00;5.83;;;15.50;98.30;;;;;;5125567;23;20453;-82
2021/08/26 03:47:43;;;;;;;15.80;5.90;;;15.50;98.30;;;;;;5125427;23;20492;-82
2021/08/26 03:49:46;;;;;;;18.10;6.20;;;15.50;98.30;;;;;;5125499;23;20464;-82
2021/08/26 03:51:49;;;;;;;28.63;7.17;;;15.50;98.30;;;;;;5117602;23;20804;-82
2021/08/26 03:53:53;;;;;;;24.10;7.13;;;15.50;98.30;;;;;;5125331;23;20540;-82
2021/08/26 03:55:56;;;;;;;20.27;7.00;;;15.50;98.30;;;;;;5125632;23;20492;-82
2021/08/26 03:57:59;;;;;;;25.13;9.03;;;15.40;98.30;;;;;;5125632;23;20430;-81
2021/08/26 04:00:02;;;;;;;23.33;7.70;;;15.40;98.30;;;;;;5117445;23;20492;-82
2021/08/26 04:02:06;;;;;;;30.57;9.80;;;15.40;98.30;;;;;;5117389;23;20437;-82
2021/08/26 04:04:09;;;;;;;15.87;7.30;;;15.40;98.30;;;;;;5125185;23;20429;-82
2021/08/26 04:06:12;;;;;;;29.03;7.50;;;15.40;98.30;;;;;;5125492;23;20505;-82
2021/08/26 04:08:15;;;;;;;18.57;6.70;;;15.40;98.30;;;;;;5117030;23;20457;-82
2021/08/26 04:10:19;;;;;;;23.23;6.93;;;15.40;98.30;;;;;;5125994;23;20520;-82
2021/08/26 04:12:22;;;;;;;22.47;7.10;;;15.50;98.30;;;;;;5125836;23;20422;-82
2021/08/26 04:14:25;;;;;;;16.07;6.07;;;15.50;98.30;;;;;;5125528;23;20748;-82
2021/08/26 04:16:29;;;;;;;20.80;6.93;;;15.50;98.30;;;;;;5125795;23;20422;-83
2021/08/26 04:18:31;;;;;;;19.73;6.00;;;15.40;98.30;;;;;;5125461;23;20765;-83
2021/08/26 04:20:34;;;;;;;17.13;6.83;;;15.50;98.30;;;;;;5125475;23;20452;-84
2021/08/26 04:22:37;;;;;;;22.23;6.43;;;15.40;98.30;;;;;;5116303;23;20425;-82
2021/08/26 04:24:41;;;;;;;16.13;6.20;;;15.30;98.30;;;;;;5124485;23;20418;-83
2021/08/26 04:26:46;;;;;;;23.97;6.60;;;15.30;98.30;;;;;;5125047;23;20429;-84
2021/08/26 04:28:49;;;;;;;24.40;7.17;;;15.30;98.30;;;;;;5124542;23;20946;-83
2021/08/26 04:30:52;;;;;;;18.77;6.70;;;15.40;98.30;;;;;;5124131;23;20439;-84
2021/08/26 04:32:55;;;;;;;26.00;7.07;;;15.50;98.30;;;;;;5124725;23;20915;-83
2021/08/26 04:34:58;;;;;;;21.60;6.93;;;15.50;98.30;;;;;;5116415;23;20465;-84
2021/08/26 04:37:01;;;;;;;16.73;6.20;;;15.40;98.30;;;;;;5124665;23;20426;-84
2021/08/26 04:39:04;;;;;;;16.60;6.60;;;15.40;98.30;;;;;;5125313;23;20526;-84
2021/08/26 04:41:07;;;;;;;16.67;6.20;;;15.40;98.30;;;;;;5125464;23;20501;-83
2021/08/26 04:43:11;;;;;;;19.00;6.40;;;15.40;98.30;;;;;;5124945;23;20436;-83
2021/08/26 04:45:14;;;;;;;22.10;7.00;;;15.40;98.30;;;;;;5124851;23;20445;-84
2021/08/26 04:47:17;;;;;;;16.10;6.80;;;15.50;98.30;;;;;;5124735;23;20426;-83
2021/08/26 04:49:20;;;;;;;24.07;8.10;;;15.50;98.30;;;;;;5116911;23;21022;-83
2021/08/26 04:51:23;;;;;;;15.43;6.43;;;15.40;98.30;;;;;;5124766;23;20486;-86
2021/08/26 04:53:26;;;;;;;13.87;5.33;;;15.30;98.30;;;;;;5123916;23;20426;-81
2021/08/26 04:55:29;;;;;;;18.60;6.33;;;15.40;98.30;;;;;;5125089;23;20437;-83
2021/08/26 04:57:32;;;;;;;20.27;6.40;;;15.40;98.30;;;;;;5117520;23;20430;-83
2021/08/26 04:59:36;;;;;;;23.67;7.10;;;15.30;98.30;;;;;;5116746;23;20465;-83
2021/08/26 05:01:39;;;;;;;18.40;7.30;;;15.30;98.30;;;;;;5125741;23;20426;-83
2021/08/26 05:03:42;;;;;;;20.40;6.50;;;15.40;98.30;;;;;;5117016;23;20436;-83
2021/08/26 05:05:45;;;;;;;22.10;6.07;;;15.50;98.30;;;;;;5117322;23;20799;-82
2021/08/26 05:07:48;;;;;;;13.70;5.80;;;15.50;98.30;;;;;;5125439;23;20418;-82
2021/08/26 05:09:51;;;;;;;18.30;6.60;;;15.60;98.30;;;;;;5125325;23;20434;-83
2021/08/26 05:11:57;;;;;;;21.60;7.60;;;15.60;98.30;;;;;;5117704;23;20517;-83
2021/08/26 05:14:00;;;;;;;19.50;6.30;;;15.60;98.30;;;;;;5117203;23;20433;-83
2021/08/26 05:16:05;;;;;;;24.57;6.17;;;15.60;98.30;;;;;;5117497;23;20449;-83
2021/08/26 05:18:08;;;;;;;25.30;6.87;;;15.60;98.30;;;;;;5116747;23;20448;-83
2021/08/26 11:20:54;;;;;;;4.13;1.77;;;21.10;91.10;;;;;;5148167;22;20491;-81
2021/08/26 11:23:14;;;;;;;3.13;2.27;;;20.80;91.50;;;;;;5157082;23;20444;-81
2021/08/26 11:25:26;;;;;;;3.37;2.53;;;20.60;91.70;;;;;;5147696;23;20429;-81
2021/08/26 11:27:32;;;;;;;4.20;2.23;;;20.60;92.10;;;;;;5157874;23;20461;-81
2021/08/26 11:29:37;;;;;;;2.93;2.20;;;20.50;91.70;;;;;;5150070;23;20453;-81
2021/08/26 11:31:40;;;;;;;2.43;2.03;;;20.40;92.20;;;;;;5150023;23;20504;-82
2021/08/26 11:33:43;;;;;;;4.97;1.80;;;20.40;92.50;;;;;;5156900;23;20492;-81
2021/08/26 11:35:46;;;;;;;11.00;7.60;;;20.20;91.70;;;;;;5156226;23;20435;-81
2021/08/26 11:37:54;;;;;;;14.30;11.40;;;20.10;92.50;;;;;;5153158;23;20463;-82
2021/08/26 11:40:00;;;;;;;16.53;12.10;;;20.10;92.60;;;;;;5159766;23;20531;-81
2021/08/26 11:42:04;;;;;;;15.43;10.93;;;20.00;93.00;;;;;;5163524;23;20406;-81
2021/08/26 11:44:14;;;;;;;5.60;3.90;;;20.10;93.20;;;;;;5153887;23;20431;-82
2021/08/26 11:46:19;;;;;;;8.93;4.50;;;20.20;93.10;;;;;;5153713;23;20487;-81
2021/08/26 11:48:22;;;;;;;5.50;3.70;;;20.20;92.80;;;;;;5164498;23;20421;-82
2021/08/26 11:50:28;;;;;;;5.97;4.10;;;20.20;93.00;;;;;;5156826;23;20445;-81
2021/08/26 11:52:33;;;;;;;4.20;3.57;;;20.20;93.40;;;;;;5164712;23;20424;-81
2021/08/26 11:54:40;;;;;;;6.10;3.23;;;20.20;93.90;;;;;;5166355;23;20412;-81
2021/08/26 11:56:48;;;;;;;5.73;3.53;;;20.20;94.80;;;;;;5157060;23;20520;-81
2021/08/26 11:58:51;;;;;;;7.10;2.93;;;20.20;94.30;;;;;;5154991;23;20436;-81
2021/08/26 12:00:54;;;;;;;4.00;2.47;;;20.20;93.90;;;;;;5154366;23;20511;-81
2021/08/26 12:02:59;;;;;;;6.30;3.23;;;20.20;94.00;;;;;;5160060;23;20427;-81
2021/08/26 12:05:04;;;;;;;4.87;2.20;;;20.20;94.40;;;;;;5160942;23;20754;-81
2021/08/26 12:07:08;;;;;;;4.50;2.80;;;20.30;93.50;;;;;;5162109;23;20441;-81
2021/08/26 12:09:11;;;;;;;6.50;3.17;;;20.30;93.90;;;;;;5162208;23;20439;-81
2021/08/26 12:11:24;;;;;;;4.63;2.20;;;20.20;93.80;;;;;;5152053;23;20509;-81
2021/08/26 12:13:29;;;;;;;4.00;2.13;;;20.20;93.70;;;;;;5162406;23;20658;-81
2021/08/26 12:15:34;;;;;;;4.00;2.30;;;20.20;93.30;;;;;;5159164;23;21025;-81
2021/08/26 12:17:39;;;;;;;3.30;2.03;;;20.10;92.60;;;;;;5160235;23;20995;-81
2021/08/26 12:19:42;;;;;;;4.73;2.10;;;20.10;93.00;;;;;;5160582;23;20449;-81
2021/08/26 12:21:45;;;;;;;5.07;2.50;;;20.30;93.80;;;;;;5153654;23;20486;-81
2021/08/26 12:23:49;;;;;;;3.60;2.50;;;20.40;93.20;;;;;;5162404;23;20476;-81
2021/08/26 12:26:05;;;;;;;5.73;2.57;;;20.30;92.90;;;;;;5161815;23;20428;-81
2021/08/26 12:28:12;;;;;;;4.37;2.60;;;20.40;93.10;;;;;;5161676;23;20448;-82
2021/08/26 12:30:28;;;;;;;3.83;2.07;;;20.40;93.50;;;;;;5151792;23;20472;-81
2021/08/26 12:32:34;;;;;;;3.47;2.10;;;20.40;93.70;;;;;;5152740;23;20409;-82
2021/08/26 12:34:37;;;;;;;4.37;1.93;;;20.40;93.70;;;;;;5152351;23;20413;-81
2021/08/26 12:36:43;;;;;;;2.90;1.90;;;20.50;93.40;;;;;;5152952;23;20463;-81
2021/08/26 12:38:55;;;;;;;5.17;2.20;;;20.40;93.00;;;;;;5153085;23;20883;-81
2021/08/26 12:41:01;;;;;;;3.77;1.93;;;20.30;92.80;;;;;;5162321;23;20822;-81
2021/08/26 12:43:06;;;;;;;2.83;1.90;;;20.30;92.20;;;;;;5152411;23;20425;-81
2021/08/26 12:45:21;;;;;;;4.60;1.90;;;20.30;93.10;;;;;;5152150;23;20413;-82
2021/08/26 12:47:27;;;;;;;5.03;2.20;;;20.30;93.20;;;;;;5151502;23;20496;-81
2021/08/26 12:49:41;;;;;;;3.37;1.90;;;20.20;93.90;;;;;;5158854;23;20445;-81
2021/08/26 12:51:53;;;;;;;4.13;2.20;;;20.10;93.70;;;;;;5160502;23;20411;-81
2021/08/26 12:54:15;;;;;;;4.53;2.57;;;19.90;93.60;;;;;;5152769;23;20409;-81
2021/08/26 12:56:20;;;;;;;4.80;2.40;;;19.80;94.50;;;;;;5152988;23;20429;-82
2021/08/26 12:58:23;;;;;;;5.00;2.37;;;19.80;95.20;;;;;;5162473;23;21038;-82
2021/08/26 13:00:41;;;;;;;3.10;2.00;;;19.80;95.20;;;;;;5160659;23;20503;-82
2021/08/26 13:02:52;;;;;;;2.47;2.00;;;19.60;95.30;;;;;;5153469;23;20420;-83
2021/08/26 13:05:04;;;;;;;3.40;2.67;;;19.60;95.20;;;;;;5152944;23;20474;-82
2021/08/26 13:07:18;;;;;;;5.00;2.77;;;19.50;95.70;;;;;;5162049;23;20429;-82
2021/08/26 13:09:30;;;;;;;6.17;2.70;;;19.50;96.40;;;;;;5161919;23;21207;-82
2021/08/26 13:11:35;;;;;;;5.13;2.50;;;19.60;96.40;;;;;;5161593;23;20453;-82
2021/08/26 13:13:39;;;;;;;4.83;2.10;;;19.60;96.50;;;;;;5161029;23;21026;-82
2021/08/26 13:15:44;;;;;;;2.63;2.00;;;19.70;95.90;;;;;;5161635;23;20435;-82
2021/08/26 13:17:47;;;;;;;6.60;2.07;;;19.60;96.50;;;;;;5161694;23;20512;-82
2021/08/26 13:19:53;;;;;;;3.63;2.70;;;19.60;95.60;;;;;;5152736;23;20488;-82
2021/08/26 13:21:56;;;;;;;4.30;2.20;;;19.50;95.80;;;;;;5153748;23;20480;-82
2021/08/26 13:23:59;;;;;;;5.00;2.83;;;19.60;96.50;;;;;;5152320;23;20456;-82
2021/08/26 13:26:05;;;;;;;3.50;2.50;;;19.60;96.60;;;;;;5152661;23;20433;-82
2021/08/26 13:28:09;;;;;;;5.50;2.50;;;19.60;96.70;;;;;;5153412;23;20441;-82
2021/08/26 13:30:14;;;;;;;4.80;2.50;;;19.50;96.50;;;;;;5161917;23;20437;-82
2021/08/26 13:32:20;;;;;;;2.90;2.10;;;19.50;96.80;;;;;;5160890;23;20416;-82
2021/08/26 13:34:23;;;;;;;4.03;2.87;;;19.60;96.40;;;;;;5160818;23;20427;-82
2021/08/26 13:36:26;;;;;;;6.23;2.70;;;19.60;96.70;;;;;;5152248;23;20443;-82
2021/08/26 13:38:30;;;;;;;2.13;1.90;;;19.70;96.00;;;;;;5151764;23;20456;-82
2021/08/26 13:40:33;;;;;;;3.87;2.20;;;19.80;96.40;;;;;;5152234;23;20472;-82
2021/08/26 13:42:36;;;;;;;3.63;2.40;;;19.80;95.80;;;;;;5161880;23;20421;-82
2021/08/26 13:44:40;;;;;;;3.87;2.57;;;19.80;96.00;;;;;;5161057;23;20492;-82
2021/08/26 13:46:43;;;;;;;5.47;2.93;;;19.90;96.30;;;;;;5156864;23;20452;-82
2021/08/26 13:48:47;;;;;;;4.57;2.70;;;20.00;96.40;;;;;;5152153;23;20420;-82
2021/08/26 13:50:50;;;;;;;4.10;2.47;;;20.10;95.70;;;;;;5144662;23;20483;-82
2021/08/26 13:52:53;;;;;;;4.33;2.90;;;20.10;95.70;;;;;;5144093;23;20452;-82
2021/08/26 13:54:56;;;;;;;2.10;1.80;;;20.10;96.30;;;;;;5150311;23;20428;-82
2021/08/26 13:57:01;;;;;;;6.40;2.20;;;20.10;94.70;;;;;;5151273;23;20421;-82
2021/08/26 13:59:04;;;;;;;4.00;2.47;;;20.10;95.80;;;;;;5142809;23;20484;-83
2021/08/26 14:01:07;;;;;;;6.07;2.40;;;20.10;95.40;;;;;;5150737;23;20835;-83
2021/08/26 14:03:10;;;;;;;3.33;2.20;;;20.10;94.50;;;;;;5151662;23;20509;-82
2021/08/26 14:05:15;;;;;;;3.07;2.30;;;20.00;94.70;;;;;;5142226;23;20725;-82
2021/08/26 14:07:18;;;;;;;4.17;2.70;;;20.20;94.30;;;;;;5150801;23;20429;-83
2021/08/26 14:09:21;;;;;;;4.23;2.40;;;20.40;93.90;;;;;;5151270;23;20451;-82
2021/08/26 14:11:24;;;;;;;4.53;2.30;;;20.50;93.90;;;;;;5151930;23;20746;-82
2021/08/26 14:13:28;;;;;;;4.00;3.30;;;20.50;92.20;;;;;;5152360;23;20520;-82
2021/08/26 14:15:31;;;;;;;3.60;2.20;;;20.30;93.50;;;;;;5143105;23;20429;-83
2021/08/26 14:17:34;;;;;;;5.40;2.70;;;20.20;94.10;;;;;;5142921;23;20535;-83
2021/08/26 14:19:37;;;;;;;4.40;2.40;;;20.00;95.30;;;;;;5142851;23;20562;-82
2021/08/26 14:21:41;;;;;;;7.03;2.40;;;19.90;95.90;;;;;;5151119;23;20448;-82
2021/08/26 14:23:44;;;;;;;2.57;2.30;;;19.70;96.10;;;;;;5151223;23;20428;-82
2021/08/26 14:25:47;;;;;;;3.93;2.20;;;19.60;97.00;;;;;;5142639;23;20810;-82
2021/08/26 14:27:50;;;;;;;6.17;4.20;;;19.60;97.40;;;;;;5151283;23;20417;-82
2021/08/26 14:29:54;;;;;;;24.33;16.70;;;19.90;96.80;;;;;;5150989;23;20953;-82
2021/08/26 14:31:57;;;;;;;36.57;30.37;;;20.30;96.10;;;;;;5142701;23;20428;-82
2021/08/26 14:33:59;;;;;;;10.67;7.50;;;20.60;95.40;;;;;;5150426;23;20918;-82
2021/08/26 14:36:04;;;;;;;12.13;4.33;;;20.60;94.10;;;;;;5142278;23;20910;-82
2021/08/26 14:38:08;;;;;;;4.47;3.30;;;20.40;92.10;;;;;;5151046;23;20463;-82
2021/08/26 14:40:13;;;;;;;8.10;5.83;;;20.20;93.00;;;;;;5143292;23;20504;-82
2021/08/26 14:42:16;;;;;;;6.70;5.23;;;20.10;93.90;;;;;;5150843;23;20431;-82
2021/08/26 14:44:19;;;;;;;7.10;4.23;;;20.00;94.70;;;;;;5142089;23;20425;-82
2021/08/26 14:46:22;;;;;;;9.53;5.87;;;20.00;95.50;;;;;;5150402;23;20429;-83
2021/08/26 14:48:25;;;;;;;4.80;3.57;;;20.10;96.00;;;;;;5142564;23;20432;-82
2021/08/26 14:50:34;;;;;;;6.43;3.97;;;20.00;96.30;;;;;;5142668;23;20532;-82
2021/08/26 14:52:36;;;;;;;4.70;4.00;;;19.90;97.00;;;;;;5151730;23;21012;-82
2021/08/26 14:54:41;;;;;;;6.47;5.07;;;19.80;96.90;;;;;;5142142;23;20428;-82
2021/08/26 14:56:45;;;;;;;8.17;4.63;;;19.70;97.20;;;;;;5142880;23;20417;-82
2021/08/26 14:58:48;;;;;;;7.43;5.00;;;19.70;97.20;;;;;;5142282;23;20448;-82
2021/08/26 15:00:51;;;;;;;11.40;9.20;;;19.80;97.50;;;;;;5151084;23;20747;-82
2021/08/26 15:02:54;;;;;;;9.63;6.93;;;19.80;97.30;;;;;;5143326;23;20429;-82
2021/08/26 15:04:58;;;;;;;4.40;3.70;;;19.80;96.90;;;;;;5150542;23;20729;-82
2021/08/26 15:07:00;;;;;;;5.90;4.30;;;19.80;97.00;;;;;;5150484;23;20423;-82
2021/08/26 15:09:04;;;;;;;3.37;2.97;;;19.80;97.40;;;;;;5141820;23;20435;-81
2021/08/26 15:11:08;;;;;;;7.73;2.50;;;19.80;97.10;;;;;;5150118;23;20421;-81
2021/08/26 15:13:11;;;;;;;5.50;3.43;;;19.60;97.30;;;;;;5149779;23;20417;-81
2021/08/26 15:15:14;;;;;;;5.87;3.20;;;19.60;98.00;;;;;;5140989;23;20431;-81
2021/08/26 15:17:17;;;;;;;2.40;2.20;;;19.50;98.20;;;;;;5149722;23;20432;-82
2021/08/26 15:19:20;;;;;;;7.40;3.10;;;19.50;98.00;;;;;;5141415;23;20521;-81
2021/08/26 15:21:23;;;;;;;7.60;3.07;;;19.30;98.30;;;;;;5142947;23;20500;-81
2021/08/26 15:23:26;;;;;;;4.73;2.60;;;19.30;98.30;;;;;;5143225;23;20428;-81
2021/08/26 15:25:29;;;;;;;5.80;2.63;;;19.30;98.30;;;;;;5151613;23;20425;-82
2021/08/26 15:27:35;;;;;;;6.37;4.03;;;19.40;98.30;;;;;;5143463;23;20432;-81
2021/08/26 15:29:38;;;;;;;7.00;4.23;;;19.50;98.30;;;;;;5143633;23;20531;-82
2021/08/26 15:31:41;;;;;;;4.87;3.10;;;19.50;98.30;;;;;;5151673;23;20418;-82
2021/08/26 15:33:44;;;;;;;9.30;5.13;;;19.40;98.30;;;;;;5151367;23;20431;-82
2021/08/26 15:35:47;;;;;;;5.20;3.13;;;19.40;98.30;;;;;;5151934;23;20883;-82
2021/08/26 15:37:50;;;;;;;5.63;3.20;;;19.50;98.30;;;;;;5152059;23;20723;-82
2021/08/26 15:39:53;;;;;;;3.70;2.80;;;19.50;98.30;;;;;;5142871;23;20457;-82
2021/08/26 15:41:56;;;;;;;6.43;2.60;;;19.50;98.30;;;;;;5151711;23;20500;-82
2021/08/26 15:44:02;;;;;;;4.33;3.50;;;19.50;98.30;;;;;;5151071;23;20898;-82
2021/08/26 15:46:05;;;;;;;3.87;2.73;;;19.60;98.30;;;;;;5143525;23;20445;-82
2021/08/26 15:48:10;;;;;;;4.63;2.50;;;19.60;98.30;;;;;;5151190;23;20452;-82
2021/08/26 15:50:13;;;;;;;7.13;3.77;;;19.70;98.30;;;;;;5143038;23;20531;-82
2021/08/26 15:52:20;;;;;;;5.93;3.53;;;19.70;98.30;;;;;;5143186;23;20504;-82
2021/08/26 15:54:26;;;;;;;5.80;3.17;;;19.70;98.30;;;;;;5142808;23;20742;-82
2021/08/26 15:56:35;;;;;;;9.77;7.03;;;19.70;98.30;;;;;;5142740;23;20448;-82
2021/08/26 15:58:45;;;;;;;10.50;5.37;;;19.80;98.30;;;;;;5151027;23;20992;-82
2021/08/26 16:00:51;;;;;;;4.80;3.80;;;19.80;98.30;;;;;;5151348;23;20431;-82
2021/08/26 16:02:54;;;;;;;5.10;3.50;;;19.60;98.30;;;;;;5143134;23;20420;-82
2021/08/26 16:04:57;;;;;;;5.90;3.20;;;19.60;98.30;;;;;;5141879;23;20429;-82
2021/08/26 16:07:01;;;;;;;5.70;4.00;;;19.50;98.30;;;;;;5143043;23;20448;-82
2021/08/26 16:09:05;;;;;;;6.17;3.80;;;19.50;98.30;;;;;;5142652;23;20430;-82
2021/08/26 16:11:08;;;;;;;4.07;3.30;;;19.60;98.30;;;;;;5151241;23;20417;-82
2021/08/26 16:13:12;;;;;;;5.30;4.00;;;19.60;98.30;;;;;;5142670;23;20429;-82
2021/08/26 16:15:15;;;;;;;4.47;2.97;;;19.50;98.30;;;;;;5142248;23;20432;-82
2021/08/26 16:17:19;;;;;;;5.20;3.57;;;19.50;98.30;;;;;;5150505;23;20424;-82
2021/08/26 16:19:23;;;;;;;7.10;3.33;;;19.40;98.30;;;;;;5150825;23;20472;-82
2021/08/26 16:21:26;;;;;;;5.90;3.67;;;19.40;98.30;;;;;;5142539;23;20734;-82
2021/08/26 16:23:28;;;;;;;4.47;3.83;;;19.50;98.30;;;;;;5142251;23;20429;-82
2021/08/26 16:25:31;;;;;;;4.40;3.33;;;19.50;98.30;;;;;;5150850;23;20424;-82
2021/08/26 16:27:35;;;;;;;15.00;10.90;;;19.40;98.30;;;;;;5143028;23;20428;-83
2021/08/26 16:29:38;;;;;;;35.53;27.60;;;19.30;98.30;;;;;;5142477;23;20532;-82
2021/08/26 16:31:41;;;;;;;14.40;11.30;;;19.40;98.30;;;;;;5150413;23;20785;-83
2021/08/26 16:33:45;;;;;;;8.20;5.40;;;19.30;98.30;;;;;;5142390;23;20797;-82
2021/08/26 16:35:48;;;;;;;8.13;5.50;;;19.20;98.30;;;;;;5143487;23;20429;-82
2021/08/26 16:37:51;;;;;;;10.30;5.47;;;19.20;98.30;;;;;;5151327;23;20674;-82
2021/08/26 16:39:54;;;;;;;7.20;4.80;;;19.10;98.30;;;;;;5142813;23;20457;-83
2021/08/26 16:41:57;;;;;;;5.67;4.30;;;19.00;98.30;;;;;;5144149;23;20937;-81
2021/08/26 16:44:00;;;;;;;11.13;5.40;;;18.80;98.30;;;;;;5153074;23;21008;-82
2021/08/26 16:46:03;;;;;;;9.30;4.73;;;18.80;98.30;;;;;;5159189;23;20463;-82
2021/08/26 16:48:07;;;;;;;5.73;3.63;;;18.80;98.30;;;;;;5167418;23;20428;-82
2021/08/26 16:50:15;;;;;;;7.53;4.43;;;18.70;98.30;;;;;;5158654;23;20469;-82
2021/08/26 16:52:19;;;;;;;13.50;5.87;;;18.70;98.30;;;;;;5159791;23;20504;-82
2021/08/26 16:54:22;;;;;;;13.77;5.50;;;18.80;98.30;;;;;;5167054;23;20444;-82
2021/08/26 16:56:25;;;;;;;8.10;6.27;;;18.80;98.30;;;;;;5167397;23;20428;-82
2021/08/26 16:58:27;;;;;;;5.77;3.60;;;18.80;98.30;;;;;;5162721;23;20421;-82
2021/08/26 17:00:30;;;;;;;7.73;5.13;;;18.80;98.30;;;;;;5142479;23;20480;-82
2021/08/26 17:02:34;;;;;;;7.50;4.57;;;18.70;98.30;;;;;;5143038;23;20453;-82
2021/08/26 17:04:37;;;;;;;7.90;3.97;;;18.50;98.30;;;;;;5142603;23;20472;-82
2021/08/26 17:06:42;;;;;;;6.90;4.70;;;18.60;98.30;;;;;;5142662;23;20517;-82
2021/08/26 17:08:45;;;;;;;10.50;4.70;;;18.60;98.30;;;;;;5150861;23;21230;-82
2021/08/26 17:10:48;;;;;;;5.90;3.83;;;18.60;98.30;;;;;;5151246;23;20417;-82
2021/08/26 17:12:51;;;;;;;7.97;4.10;;;18.60;98.30;;;;;;5142549;23;20464;-82
2021/08/26 17:14:55;;;;;;;5.57;3.20;;;18.60;98.30;;;;;;5141700;23;20425;-83
2021/08/26 17:17:01;;;;;;;6.73;4.10;;;18.70;98.30;;;;;;5150784;23;21074;-82
2021/08/26 17:19:06;;;;;;;7.90;5.30;;;18.70;98.30;;;;;;5151334;23;20774;-82
2021/08/26 17:21:09;;;;;;;18.77;14.07;;;18.70;98.30;;;;;;5154799;23;20429;-82
2021/08/26 17:23:14;;;;;;;25.67;18.80;;;18.70;98.30;;;;;;5151518;23;20432;-82
2021/08/26 17:25:17;;;;;;;27.60;19.10;;;18.70;98.30;;;;;;5149985;23;20416;-82
2021/08/26 17:27:20;;;;;;;28.10;20.57;;;18.70;98.30;;;;;;5142843;23;20433;-82